Terminal Aerodrome Forecast
Issued by NWS

Home | Current Version | Previous Version | Text Only | Print | Product List | Glossary Off
Versions: 1 2 3 4 5 6 7 8 9 10 11 12 13 14 15 16 17

785
FTUS42 KMHX 281123
TAFOAJ
TAF
KOAJ 281123Z 2812/2912 21006KT P6SM BKN120
     FM281600 22010G18KT P6SM VCSH BKN060
     FM282200 21008KT P6SM -SHRA VCTS SCT020 BKN050CB
     FM290100 24006KT P6SM FEW020 SCT050
     FM290700 33005KT P6SM SCT250
      AMD LTD TO CLD VIS AND WIND=

USA.gov is the U.S. government's official web portal to all federal, state and local government web resources and services.